createdAt,value
2018-01-25T00:02:11.311Z,1.73
2018-01-25T00:04:40.968Z,6.10
2018-01-25T00:07:10.871Z,5.70
2018-01-25T00:09:41.873Z,4.63
2018-01-25T00:12:11.579Z,7.33
2018-01-25T00:14:41.237Z,7.40
2018-01-25T00:17:11.001Z,3.43
2018-01-25T00:19:40.709Z,10.93
2018-01-25T00:22:14.309Z,6.30
2018-01-25T00:24:44.018Z,3.00
2018-01-25T00:27:13.733Z,4.70
2018-01-25T00:29:43.437Z,5.50
2018-01-25T00:32:13.145Z,4.63
2018-01-25T00:34:42.866Z,5.07
2018-01-25T00:37:12.716Z,3.20
2018-01-25T00:39:42.481Z,5.87
2018-01-25T00:42:12.190Z,3.20
2018-01-25T00:44:41.898Z,3.90
2018-01-25T00:47:11.609Z,6.53
2018-01-25T00:49:41.267Z,3.63
2018-01-25T00:52:11.240Z,3.13
2018-01-25T00:54:40.942Z,4.60
2018-01-25T00:57:10.861Z,1.50
2018-01-25T00:59:40.770Z,2.93
2018-01-25T01:02:11.096Z,3.80
2018-01-25T01:04:42.238Z,3.70
2018-01-25T01:07:13.381Z,6.57
2018-01-25T01:09:44.671Z,7.80
2018-01-25T01:12:14.648Z,6.13
2018-01-25T01:14:44.353Z,7.57
2018-01-25T01:17:15.701Z,2.87
2018-01-25T01:19:45.617Z,4.20
2018-01-25T01:22:15.324Z,4.67
2018-01-25T01:24:45.034Z,7.60
2018-01-25T01:27:14.948Z,4.63
2018-01-25T01:29:44.657Z,3.00
2018-01-25T01:32:14.369Z,3.13
2018-01-25T01:34:44.285Z,4.20
2018-01-25T01:37:15.631Z,1.70
2018-01-25T01:39:45.546Z,4.10
2018-01-25T01:42:15.254Z,7.77
2018-01-25T01:44:44.964Z,3.73
2018-01-25T01:47:14.879Z,3.93
2018-01-25T01:49:44.757Z,9.47
2018-01-25T01:52:14.501Z,4.87
2018-01-25T01:54:44.354Z,5.33
2018-01-25T01:57:14.740Z,3.50
2018-01-25T01:59:44.859Z,5.77
2018-01-25T02:02:14.570Z,6.17
2018-01-25T02:04:44.688Z,5.13
2018-01-25T02:07:14.603Z,4.00
2018-01-25T02:09:44.252Z,2.80
2018-01-25T02:12:14.788Z,3.60
2018-01-25T02:14:44.501Z,8.33
2018-01-25T02:17:14.260Z,4.40
2018-01-25T02:19:43.926Z,3.67
2018-01-25T02:22:13.683Z,6.53
2018-01-25T02:24:43.388Z,9.17
2018-01-25T02:27:13.100Z,4.00
2018-01-25T02:29:42.807Z,3.20
2018-01-25T02:32:12.749Z,2.87
2018-01-25T02:34:42.375Z,3.90
2018-01-25T02:37:12.140Z,6.63
2018-01-25T02:39:41.792Z,9.37
2018-01-25T02:42:11.504Z,6.83
2018-01-25T02:44:41.270Z,9.10
2018-01-25T02:47:11.183Z,9.33
2018-01-25T02:49:41.053Z,9.53
2018-01-25T02:52:10.810Z,12.20
2018-01-25T02:54:40.518Z,11.30
2018-01-25T02:57:10.227Z,14.67
2018-01-25T02:59:40.088Z,4.13
2018-01-25T03:02:13.337Z,7.60
2018-01-25T03:04:43.016Z,8.53
2018-01-25T03:07:12.897Z,8.93
2018-01-25T03:09:42.666Z,4.73
2018-01-25T03:12:12.581Z,11.70
2018-01-25T03:14:42.310Z,11.20
2018-01-25T03:17:12.000Z,10.47
2018-01-25T03:19:41.709Z,8.17
2018-01-25T03:22:11.423Z,12.77
2018-01-25T03:24:41.336Z,8.87
2018-01-25T03:27:11.050Z,6.20
2018-01-25T03:29:40.768Z,8.30
2018-01-25T03:32:10.723Z,5.40
2018-01-25T03:35:43.251Z,11.40
2018-01-25T03:38:12.960Z,6.10
2018-01-25T03:40:43.488Z,9.77
2018-01-25T03:43:13.197Z,8.60
2018-01-25T03:45:43.052Z,7.17
2018-01-25T03:48:13.846Z,5.70
2018-01-25T03:50:43.760Z,11.90
2018-01-25T03:53:13.675Z,10.47
2018-01-25T03:55:43.385Z,13.13
2018-01-25T03:58:13.095Z,13.67
2018-01-25T04:00:42.803Z,11.30
2018-01-25T04:03:12.515Z,12.93
2018-01-25T04:05:42.426Z,12.40
2018-01-25T04:08:12.139Z,16.77
2018-01-25T04:10:41.846Z,12.63
2018-01-25T04:13:11.556Z,11.00
2018-01-25T04:15:41.269Z,13.80
2018-01-25T04:18:10.975Z,13.73
2018-01-25T04:20:40.687Z,14.53
2018-01-25T04:23:10.556Z,9.00
2018-01-25T04:25:40.307Z,15.70
2018-01-25T04:28:10.024Z,12.23
2018-01-25T04:30:39.728Z,14.53
2018-01-25T04:33:09.440Z,18.30
2018-01-25T04:35:39.150Z,19.90
2018-01-25T04:38:08.860Z,12.40
2018-01-25T04:40:38.565Z,22.83
2018-01-25T04:43:08.480Z,16.07
2018-01-25T04:45:38.955Z,16.83
2018-01-25T04:48:08.718Z,19.70
2018-01-25T04:50:38.429Z,19.13
2018-01-25T04:53:08.137Z,30.17
2018-01-25T04:55:37.848Z,13.30
2018-01-25T04:58:07.714Z,9.00
2018-01-25T05:00:37.472Z,15.17
2018-01-25T05:03:07.186Z,13.33
2018-01-25T05:05:36.891Z,18.00
2018-01-25T05:08:08.237Z,12.10
2018-01-25T05:10:37.947Z,27.30
2018-01-25T05:13:07.667Z,21.40
2018-01-25T05:15:37.396Z,10.17
2018-01-25T05:18:07.340Z,19.30
2018-01-25T05:20:36.991Z,18.63
2018-01-25T05:23:08.341Z,12.50
2018-01-25T05:25:38.058Z,29.57
2018-01-25T05:28:07.961Z,26.60
2018-01-25T05:30:37.879Z,24.90
2018-01-25T05:33:07.800Z,15.83
2018-01-25T05:35:37.725Z,14.73
2018-01-25T05:38:07.623Z,23.30
2018-01-25T05:40:37.338Z,16.40
2018-01-25T05:43:06.980Z,25.40
2018-01-25T05:45:36.753Z,23.67
2018-01-25T05:48:06.402Z,21.83
2018-01-25T05:50:36.169Z,16.27
2018-01-25T05:53:05.879Z,30.87
2018-01-25T05:55:35.587Z,26.50
2018-01-25T05:58:06.732Z,25.07
2018-01-25T06:00:38.078Z,27.20
2018-01-25T06:03:07.789Z,24.70
2018-01-25T06:05:37.498Z,27.23
2018-01-25T06:08:09.007Z,35.03
2018-01-25T06:10:38.760Z,18.93
2018-01-25T06:13:08.470Z,32.43
2018-01-25T06:15:38.179Z,19.53
2018-01-25T06:18:09.404Z,15.70
2018-01-25T06:20:39.032Z,22.13
2018-01-25T06:23:08.741Z,23.93
2018-01-25T06:25:38.451Z,21.93
2018-01-25T06:28:09.798Z,25.90
2018-01-25T06:30:39.516Z,20.30
2018-01-25T06:33:09.281Z,22.47
2018-01-25T06:35:38.931Z,25.87
2018-01-25T06:38:08.845Z,36.23
2018-01-25T06:40:38.755Z,19.93
2018-01-25T06:43:08.669Z,35.37
2018-01-25T06:45:38.379Z,17.83
2018-01-25T06:48:08.401Z,22.27
2018-01-25T06:50:38.208Z,30.77
2018-01-25T06:53:07.918Z,18.87
2018-01-25T06:55:37.627Z,31.37
2018-01-25T06:58:07.745Z,32.60
2018-01-25T07:00:37.672Z,31.80
2018-01-25T07:03:07.373Z,22.00
2018-01-25T07:05:37.082Z,14.70
2018-01-25T07:08:07.003Z,18.17
2018-01-25T07:10:37.524Z,19.00
2018-01-25T07:13:07.231Z,24.13
2018-01-25T07:15:36.944Z,37.97
2018-01-25T07:18:06.651Z,23.77
2018-01-25T07:20:36.361Z,18.80
2018-01-25T07:23:06.071Z,35.30
2018-01-25T07:25:35.985Z,25.20
2018-01-25T07:28:05.696Z,29.03
2018-01-25T07:30:35.817Z,29.90
2018-01-25T07:33:05.524Z,37.47
2018-01-25T07:35:35.233Z,27.73
2018-01-25T07:38:04.942Z,28.40
2018-01-25T07:40:34.656Z,29.43
2018-01-25T07:43:04.370Z,26.13
2018-01-25T07:45:34.891Z,23.37
2018-01-25T07:48:04.804Z,23.80
2018-01-25T07:50:37.734Z,24.80
2018-01-25T07:53:07.910Z,15.90
2018-01-25T07:55:39.056Z,33.90
2018-01-25T07:58:13.064Z,20.00
2018-01-25T08:00:42.777Z,23.97
2018-01-25T08:03:12.687Z,30.20
2018-01-25T08:05:42.352Z,21.43
2018-01-25T08:08:12.317Z,30.87
2018-01-25T08:10:42.643Z,26.73
2018-01-25T08:13:17.260Z,29.07
2018-01-25T08:15:46.970Z,25.40
2018-01-25T08:18:16.716Z,39.70
2018-01-25T08:20:46.389Z,26.27
2018-01-25T08:23:16.248Z,21.40
2018-01-25T08:25:46.020Z,28.27
2018-01-25T08:28:16.550Z,40.80
2018-01-25T08:30:46.254Z,31.13
2018-01-25T08:33:15.961Z,35.70
2018-01-25T08:35:45.875Z,29.73
2018-01-25T08:38:15.762Z,31.50
2018-01-25T08:40:45.909Z,27.33
2018-01-25T08:43:17.258Z,31.40
2018-01-25T08:45:48.613Z,35.63
2018-01-25T08:48:18.315Z,31.67
2018-01-25T08:50:48.028Z,34.57
2018-01-25T08:53:19.167Z,27.37
2018-01-25T08:55:48.879Z,28.30
2018-01-25T08:58:18.587Z,27.43
2018-01-25T09:00:48.297Z,27.60
2018-01-25T09:03:18.225Z,38.03
2018-01-25T09:05:48.081Z,28.23
2018-01-25T09:08:17.834Z,29.50
2018-01-25T09:10:47.547Z,40.03
2018-01-25T09:13:18.686Z,34.97
2018-01-25T09:15:48.435Z,34.17
2018-01-25T09:18:18.053Z,35.10
2018-01-25T09:20:48.075Z,33.17
2018-01-25T09:23:17.731Z,29.67
2018-01-25T09:25:49.078Z,50.03
2018-01-25T09:28:20.222Z,33.57
2018-01-25T09:30:50.341Z,22.60
2018-01-25T09:33:20.057Z,30.73
2018-01-25T09:35:49.971Z,25.33
2018-01-25T09:38:19.675Z,24.73
2018-01-25T09:40:49.384Z,23.57
2018-01-25T09:43:20.759Z,24.83
2018-01-25T09:45:50.443Z,32.83
2018-01-25T09:48:21.728Z,23.70
2018-01-25T09:50:52.325Z,22.40
2018-01-25T09:53:22.232Z,17.50
2018-01-25T09:55:51.941Z,30.13
2018-01-25T09:58:23.093Z,18.20
2018-01-25T10:00:52.999Z,27.87
2018-01-25T10:03:39.092Z,23.83
2018-01-25T10:06:12.897Z,38.17
2018-01-25T10:08:48.142Z,26.07
2018-01-25T10:11:17.837Z,20.37
2018-01-25T10:13:47.762Z,26.50
2018-01-25T10:16:17.728Z,24.03
2018-01-25T10:18:47.389Z,26.50
2018-01-25T10:21:18.528Z,32.53
2018-01-25T10:23:48.648Z,23.90
2018-01-25T10:26:18.567Z,20.80
2018-01-25T10:28:48.277Z,22.00
2018-01-25T10:31:17.982Z,31.13
2018-01-25T10:33:47.896Z,24.80
2018-01-25T10:36:17.811Z,19.07
2018-01-25T10:38:47.584Z,17.30
2018-01-25T10:41:17.437Z,13.23
2018-01-25T10:43:48.782Z,20.47
2018-01-25T10:46:19.108Z,25.97
2018-01-25T10:48:50.249Z,27.20
2018-01-25T10:51:20.581Z,37.53
2018-01-25T10:53:50.897Z,22.17
2018-01-25T10:56:20.861Z,21.03
2018-01-25T10:58:51.136Z,24.93
2018-01-25T11:01:25.352Z,14.87
2018-01-25T11:03:55.329Z,15.10
2018-01-25T11:06:25.323Z,12.53
2018-01-25T11:08:56.528Z,15.57
2018-01-25T11:11:26.646Z,24.63
2018-01-25T11:13:56.712Z,22.13
2018-01-25T11:16:26.885Z,18.50
2018-01-25T11:18:57.005Z,19.93
2018-01-25T11:21:27.754Z,20.07
2018-01-25T11:23:58.063Z,25.30
2018-01-25T11:26:28.385Z,25.50
2018-01-25T11:28:58.444Z,15.73
2018-01-25T11:31:28.764Z,21.37
2018-01-25T11:33:59.357Z,19.47
2018-01-25T11:36:29.424Z,18.33
2018-01-25T11:38:59.800Z,22.93
2018-01-25T11:41:30.052Z,30.13
2018-01-25T11:44:00.873Z,21.97
2018-01-25T11:46:31.124Z,21.50
2018-01-25T11:49:00.891Z,13.63
2018-01-25T11:51:31.423Z,18.27
2018-01-25T11:54:01.484Z,15.50
2018-01-25T11:56:31.605Z,22.23
2018-01-25T11:59:02.560Z,22.90
2018-01-25T12:01:32.922Z,20.63
2018-01-25T12:04:03.014Z,24.13
2018-01-25T12:06:33.366Z,20.40
2018-01-25T12:09:03.903Z,27.03
2018-01-25T12:11:34.223Z,26.93
2018-01-25T12:14:04.747Z,24.80
2018-01-25T12:16:34.880Z,23.90
2018-01-25T12:19:04.945Z,29.93
2018-01-25T12:21:35.134Z,23.93
2018-01-25T12:24:06.012Z,27.60
2018-01-25T12:26:36.251Z,21.70
2018-01-25T12:29:06.284Z,23.67
2018-01-25T12:31:36.568Z,17.93
2018-01-25T12:34:06.531Z,22.47
2018-01-25T12:36:37.350Z,21.63
2018-01-25T12:39:07.580Z,19.17
2018-01-25T12:41:37.637Z,27.47
2018-01-25T12:44:07.898Z,20.23
2018-01-25T12:46:38.548Z,30.07
2018-01-25T12:49:08.417Z,27.83
2018-01-25T12:51:38.537Z,31.90
2018-01-25T12:54:08.701Z,32.17
2018-01-25T12:56:38.980Z,19.27
2018-01-25T12:59:09.349Z,21.43
2018-01-25T13:01:39.426Z,23.60
2018-01-25T13:04:09.793Z,23.90
2018-01-25T13:06:40.117Z,28.90
2018-01-25T13:09:10.601Z,19.03
2018-01-25T13:11:40.969Z,21.90
2018-01-25T13:14:12.603Z,25.47
2018-01-25T13:16:42.802Z,24.20
2018-01-25T13:19:12.716Z,39.10
2018-01-25T13:21:42.617Z,23.37
2018-01-25T13:24:13.209Z,28.23
2018-01-25T13:26:43.252Z,28.77
2018-01-25T13:29:13.828Z,30.30
2018-01-25T13:31:44.174Z,29.13
2018-01-25T13:34:14.159Z,25.77
2018-01-25T13:36:44.619Z,22.60
2018-01-25T13:39:14.950Z,21.80
2018-01-25T13:41:45.221Z,31.13
2018-01-25T13:44:15.388Z,24.57
2018-01-25T13:46:45.943Z,31.77
2018-01-25T13:49:16.797Z,20.93
2018-01-25T13:51:47.129Z,21.53
2018-01-25T13:54:17.705Z,23.87
2018-01-25T13:56:48.029Z,28.57
2018-01-25T13:59:18.305Z,20.93
2018-01-25T14:01:48.473Z,27.00
2018-01-25T14:04:19.007Z,19.90
2018-01-25T14:06:49.940Z,22.40
2018-01-25T14:09:20.263Z,24.77
2018-01-25T14:11:50.381Z,25.50
2018-01-25T14:14:20.666Z,29.30
2018-01-25T14:16:52.629Z,26.77
2018-01-25T14:19:22.540Z,31.73
2018-01-25T14:21:53.269Z,22.87
2018-01-25T14:24:23.436Z,27.20
2018-01-25T14:26:53.969Z,35.87
2018-01-25T14:29:24.033Z,24.70
2018-01-25T14:31:54.409Z,24.07
2018-01-25T14:34:24.732Z,31.77
2018-01-25T14:36:54.856Z,32.63
2018-01-25T14:39:26.239Z,25.67
2018-01-25T14:41:56.438Z,32.43
2018-01-25T14:44:26.680Z,23.77
2018-01-25T14:46:57.932Z,30.73
2018-01-25T14:49:28.293Z,30.30
2018-01-25T14:51:58.415Z,22.33
2018-01-25T14:54:28.763Z,26.13
2018-01-25T14:56:59.082Z,30.17
2018-01-25T14:59:29.148Z,35.30
2018-01-25T15:01:59.296Z,24.37
2018-01-25T15:04:29.610Z,32.33
2018-01-25T15:07:00.172Z,24.00
2018-01-25T15:09:30.382Z,32.47
2018-01-25T15:12:00.819Z,24.70
2018-01-25T15:14:31.144Z,20.13
2018-01-25T15:17:01.965Z,22.17
2018-01-25T15:19:32.632Z,30.43
2018-01-25T15:22:02.738Z,19.90
2018-01-25T15:24:33.222Z,21.77
2018-01-25T15:27:03.380Z,31.17
2018-01-25T15:29:37.555Z,22.40
2018-01-25T15:32:13.406Z,22.30
2018-01-25T15:34:44.117Z,24.20
2018-01-25T15:37:14.324Z,23.47
2018-01-25T15:39:45.290Z,22.27
2018-01-25T15:42:15.883Z,39.13
2018-01-25T15:44:49.470Z,23.50
2018-01-25T15:47:19.794Z,25.03
2018-01-25T15:49:50.735Z,24.37
2018-01-25T15:52:21.261Z,16.73
2018-01-25T15:54:53.020Z,24.30
2018-01-25T15:57:23.281Z,20.20
2018-01-25T15:59:53.402Z,21.13
2018-01-25T16:02:23.525Z,17.10
2018-01-25T16:04:53.844Z,19.23
2018-01-25T16:07:24.437Z,18.40
2018-01-25T16:09:54.685Z,19.33
2018-01-25T16:12:25.290Z,24.53
2018-01-25T16:14:56.636Z,21.13
2018-01-25T16:17:28.596Z,21.43
2018-01-25T16:19:58.921Z,22.67
2018-01-25T16:22:29.395Z,26.63
2018-01-25T16:24:59.525Z,24.07
2018-01-25T16:27:29.734Z,27.03
2018-01-25T16:30:00.020Z,22.90
2018-01-25T16:32:30.055Z,24.67
2018-01-25T16:35:01.046Z,19.97
2018-01-25T16:37:31.370Z,23.17
2018-01-25T16:40:01.670Z,21.87
2018-01-25T16:42:31.957Z,23.23
2018-01-25T16:45:03.580Z,30.07
2018-01-25T16:47:33.921Z,18.67
2018-01-25T16:50:03.980Z,23.00
2018-01-25T16:52:34.513Z,16.50
2018-01-25T16:55:05.097Z,37.30
2018-01-25T16:57:35.622Z,23.57
2018-01-25T17:00:05.869Z,25.17
2018-01-25T17:02:36.837Z,18.67
2018-01-25T17:05:07.212Z,24.43
2018-01-25T17:07:37.333Z,30.70
2018-01-25T17:10:07.653Z,33.53
2018-01-25T17:12:39.617Z,21.67
2018-01-25T17:15:09.722Z,43.87
2018-01-25T17:17:40.019Z,21.10
2018-01-25T17:20:10.245Z,32.57
2018-01-25T17:22:40.664Z,23.57
2018-01-25T17:25:10.990Z,30.27
2018-01-25T17:27:41.150Z,39.47
2018-01-25T17:30:11.354Z,35.13
2018-01-25T17:32:41.957Z,28.40
2018-01-25T17:35:12.902Z,22.43
2018-01-25T17:37:44.058Z,27.47
2018-01-25T17:40:14.994Z,31.60
2018-01-25T17:42:45.758Z,39.57
2018-01-25T17:45:17.187Z,27.60
2018-01-25T17:47:47.392Z,24.97
2018-01-25T17:50:17.752Z,34.23
2018-01-25T17:52:48.698Z,43.43
2018-01-25T17:55:18.798Z,25.90
2018-01-25T17:57:48.891Z,40.67
2018-01-25T18:00:19.241Z,35.70
2018-01-25T18:02:50.901Z,48.77
2018-01-25T18:05:21.542Z,35.70
2018-01-25T18:07:51.713Z,37.50
2018-01-25T18:10:21.925Z,27.47
2018-01-25T18:12:52.513Z,28.77
2018-01-25T18:15:22.776Z,29.77
2018-01-25T18:17:53.042Z,32.43
2018-01-25T18:20:23.236Z,36.20
2018-01-25T18:22:53.599Z,34.63
2018-01-25T18:25:25.370Z,26.83
2018-01-25T18:27:58.084Z,28.03
2018-01-25T18:30:28.456Z,34.00
2018-01-25T18:32:58.431Z,35.13
2018-01-25T18:35:29.728Z,39.50
2018-01-25T18:38:00.264Z,32.13
2018-01-25T18:40:31.347Z,31.83
2018-01-25T18:43:01.936Z,33.90
2018-01-25T18:45:32.459Z,38.50
2018-01-25T18:48:02.664Z,32.27
2018-01-25T18:50:32.848Z,37.80
2018-01-25T18:53:02.611Z,33.27
2018-01-25T18:55:32.326Z,37.23
2018-01-25T18:58:02.645Z,33.07
2018-01-25T19:00:32.354Z,32.93
2018-01-25T19:03:02.303Z,34.77
2018-01-25T19:05:32.254Z,36.10
2018-01-25T19:08:02.755Z,25.57
2018-01-25T19:10:32.625Z,33.13
2018-01-25T19:13:02.501Z,27.23
2018-01-25T19:15:32.397Z,39.27
2018-01-25T19:18:02.527Z,34.63
2018-01-25T19:20:32.895Z,37.80
2018-01-25T19:23:03.116Z,36.90
2018-01-25T19:25:35.386Z,36.07
2018-01-25T19:28:05.108Z,29.20
2018-01-25T19:30:35.217Z,36.17
2018-01-25T19:33:05.169Z,37.13
2018-01-25T19:35:35.064Z,25.47
2018-01-25T19:38:04.947Z,23.83
2018-01-25T19:40:35.079Z,27.57
2018-01-25T19:43:04.998Z,21.73
2018-01-25T19:45:36.312Z,22.37
2018-01-25T19:48:06.210Z,22.80
2018-01-25T19:50:36.062Z,30.10
2018-01-25T19:53:06.407Z,25.07
2018-01-25T19:55:36.438Z,20.00
2018-01-25T19:58:06.322Z,18.33
2018-01-25T20:00:36.238Z,16.73
2018-01-25T20:03:06.153Z,16.77
2018-01-25T20:05:37.908Z,27.17
2018-01-25T20:08:08.046Z,19.57
2018-01-25T20:10:37.950Z,22.77
2018-01-25T20:13:07.861Z,20.30
2018-01-25T20:15:38.181Z,19.07
2018-01-25T20:18:08.062Z,21.33
2018-01-25T20:20:38.013Z,24.23
2018-01-25T20:23:08.921Z,20.70
2018-01-25T20:25:39.441Z,22.43
2018-01-25T20:28:09.597Z,25.53
2018-01-25T20:30:39.409Z,17.80
2018-01-25T20:33:10.401Z,20.40
2018-01-25T20:35:40.319Z,30.73
2018-01-25T20:38:10.283Z,26.97
2018-01-25T20:40:40.196Z,24.83
2018-01-25T20:43:10.475Z,25.50
2018-01-25T20:45:40.439Z,25.80
2018-01-25T20:48:10.310Z,32.50
2018-01-25T20:50:40.218Z,30.13
2018-01-25T20:53:10.174Z,25.63
2018-01-25T20:55:40.581Z,32.67
2018-01-25T20:58:10.616Z,29.73
2018-01-25T21:00:41.144Z,27.57
2018-01-25T21:03:11.059Z,25.27
2018-01-25T21:05:42.407Z,28.13
2018-01-25T21:08:12.731Z,31.37
2018-01-25T21:10:42.778Z,27.60
2018-01-25T21:13:13.475Z,35.33
2018-01-25T21:15:43.498Z,34.33
2018-01-25T21:18:13.290Z,30.33
2018-01-25T21:20:43.328Z,39.40
2018-01-25T21:23:44.130Z,33.20
2018-01-25T21:26:14.089Z,35.63
2018-01-25T21:28:43.995Z,36.93
2018-01-25T21:31:13.909Z,39.13
2018-01-25T21:33:43.870Z,37.83
2018-01-25T21:36:13.740Z,40.20
2018-01-25T21:38:43.759Z,32.10
2018-01-25T21:41:13.512Z,34.33
2018-01-25T21:43:43.278Z,41.83
2018-01-25T21:46:14.624Z,43.27
2018-01-25T21:48:45.976Z,36.77
2018-01-25T21:51:16.915Z,43.13
2018-01-25T21:53:48.260Z,34.67
2018-01-25T21:56:18.378Z,32.70
2018-01-25T21:58:49.835Z,37.03
2018-01-25T22:01:20.051Z,43.17
2018-01-25T22:03:50.169Z,38.40
2018-01-25T22:06:20.035Z,51.50
2018-01-25T22:08:49.793Z,39.87
2018-01-25T22:11:21.140Z,44.13
2018-01-25T22:13:51.063Z,38.70
2018-01-25T22:16:20.765Z,52.10
2018-01-25T22:18:50.687Z,42.97
2018-01-25T22:21:21.347Z,34.20
2018-01-25T22:23:51.292Z,39.10
2018-01-25T22:26:21.240Z,41.90
2018-01-25T22:28:51.156Z,37.10
2018-01-25T22:31:20.865Z,36.30
2018-01-25T22:33:52.377Z,38.07
2018-01-25T22:36:22.332Z,37.83
2018-01-25T22:38:53.726Z,41.90
2018-01-25T22:41:23.595Z,37.70
2018-01-25T22:43:53.458Z,43.20
2018-01-25T22:46:23.169Z,38.17
2018-01-25T22:48:52.930Z,38.17
2018-01-25T22:51:22.842Z,37.03
2018-01-25T22:53:52.553Z,39.03
2018-01-25T22:56:22.207Z,34.87
2018-01-25T22:58:52.177Z,30.60
2018-01-25T23:01:21.885Z,33.23
2018-01-25T23:03:53.242Z,31.97
2018-01-25T23:06:23.095Z,34.93
2018-01-25T23:08:53.065Z,34.13
2018-01-25T23:11:22.952Z,33.60
2018-01-25T23:13:52.686Z,36.93
2018-01-25T23:16:24.041Z,34.63
2018-01-25T23:18:53.949Z,38.60
2018-01-25T23:21:24.273Z,30.97
2018-01-25T23:23:53.982Z,29.77
2018-01-25T23:26:24.667Z,37.13
2018-01-25T23:28:54.393Z,31.43
2018-01-25T23:31:24.339Z,36.03
2018-01-25T23:33:53.992Z,31.70
2018-01-25T23:36:23.800Z,32.50
2018-01-25T23:38:53.467Z,30.90
2018-01-25T23:41:23.386Z,36.30
2018-01-25T23:43:53.092Z,34.23
2018-01-25T23:46:24.418Z,35.93
2018-01-25T23:48:54.154Z,37.13
2018-01-25T23:51:24.064Z,34.57
2018-01-25T23:53:53.773Z,32.73
2018-01-25T23:56:24.304Z,32.87
2018-01-25T23:58:54.011Z,36.77
